Time;durP1;ratioP1;P1;durP2;ratioP2;P2;SDS_P1;SDS_P2;PMS_P1;PMS_P2;Temp;Humidity;BMP_temperature;BMP_pressure;BME280_temperature;BME280_humidity;BME280_pressure;Samples;Min_cycle;Max_cycle;Signal;HPM_P1;HPM_P2
2023/07/07 02:56:09;;;;;;;8.93;6.50;;;;;;;;;;3847568;37;43806;-58
2023/07/07 02:58:56;;;;;;;10.23;7.10;;;;;;;;;;4398897;32;59826;-59
2023/07/07 03:01:44;;;;;;;11.32;7.97;;;;;;;;;;4398923;32;70381;-58
2023/07/07 03:04:31;;;;;;;12.27;7.43;;;;;;;;;;4409950;32;68404;-59
2023/07/07 03:07:17;;;;;;;13.20;7.43;;;;;;;;;;4398946;32;66778;-59
2023/07/07 03:10:06;;;;;;;11.73;7.65;;;;;;;;;;4410910;32;70696;-60
2023/07/07 03:12:54;;;;;;;12.45;7.60;;;;;;;;;;4388224;32;64690;-59
2023/07/07 03:15:41;;;;;;;11.93;7.90;;;;;;;;;;4398983;32;67328;-59
2023/07/07 03:18:28;;;;;;;12.43;7.68;;;;;;;;;;4409820;32;59230;-59
2023/07/07 03:21:18;;;;;;;10.68;7.85;;;;;;;;;;4398724;32;71475;-59
2023/07/07 03:24:08;;;;;;;11.90;7.95;;;;;;;;;;4387642;32;66314;-59
2023/07/07 03:26:54;;;;;;;10.88;7.12;;;;;;;;;;4387605;32;67112;-59
2023/07/07 03:29:41;;;;;;;13.55;7.53;;;;;;;;;;4409807;32;60151;-59
2023/07/07 03:32:28;;;;;;;8.70;7.28;;;;;;;;;;4398762;32;70528;-59
2023/07/07 03:35:17;;;;;;;13.57;8.10;;;;;;;;;;4388296;32;68345;-59
2023/07/07 03:38:04;;;;;;;10.00;7.30;;;;;;;;;;4410570;32;67679;-59
2023/07/07 03:40:50;;;;;;;11.65;7.03;;;;;;;;;;4397741;32;72278;-59
2023/07/07 03:43:38;;;;;;;9.50;6.75;;;;;;;;;;4398286;32;64505;-58
2023/07/07 03:46:25;;;;;;;;;;;;;;;;;;4388060;32;68616;-59
2023/07/07 03:49:11;;;;;;;;;;;;;;;;;;4398985;32;66994;-59
2023/07/07 03:51:58;;;;;;;9.57;6.27;;;;;;;;;;4398429;32;71844;-59
2023/07/07 03:54:46;;;;;;;10.95;7.50;;;;;;;;;;4408934;32;64832;-59
2023/07/07 03:57:32;;;;;;;11.98;7.57;;;;;;;;;;4398416;32;66652;-58
2023/07/07 04:00:20;;;;;;;13.10;7.68;;;;;;;;;;4387531;32;60917;-59
2023/07/07 04:03:08;;;;;;;7.00;5.90;;;;;;;;;;4409121;32;69673;-58
2023/07/07 04:05:55;;;;;;;;;;;;;;;;;;4394928;32;69605;-59
2023/07/07 04:08:42;;;;;;;11.07;6.60;;;;;;;;;;4388227;32;67742;-58
2023/07/07 04:11:31;;;;;;;12.40;7.50;;;;;;;;;;4388336;32;60092;-59
2023/07/07 04:14:18;;;;;;;13.25;7.87;;;;;;;;;;4398597;32;70492;-58
2023/07/07 04:17:05;;;;;;;10.55;7.35;;;;;;;;;;4387794;32;69354;-59
2023/07/07 04:19:52;;;;;;;13.13;7.47;;;;;;;;;;4376615;32;67103;-59
2023/07/07 04:22:38;;;;;;;13.13;7.68;;;;;;;;;;4377183;32;71639;-58
2023/07/07 04:25:25;;;;;;;;;;;;;;;;;;4398471;32;66839;-59
2023/07/07 04:28:11;;;;;;;12.07;7.37;;;;;;;;;;4398737;32;67126;-58
2023/07/07 04:30:59;;;;;;;12.35;7.60;;;;;;;;;;4388146;32;59334;-59
2023/07/07 04:33:45;;;;;;;13.60;8.20;;;;;;;;;;4387590;32;70521;-58
2023/07/07 04:36:31;;;;;;;13.40;7.93;;;;;;;;;;4398606;32;65003;-59
2023/07/07 04:39:18;;;;;;;12.98;7.62;;;;;;;;;;4387664;32;66720;-58
2023/07/07 04:42:05;;;;;;;16.52;8.23;;;;;;;;;;4388096;32;59337;-58
2023/07/07 04:44:52;;;;;;;12.05;7.72;;;;;;;;;;4377160;32;70466;-59
2023/07/07 04:47:39;;;;;;;12.10;8.25;;;;;;;;;;4387633;32;68424;-59
2023/07/07 04:50:25;;;;;;;;;;;;;;;;;;4387700;32;66978;-58
2023/07/07 04:53:12;;;;;;;13.83;7.83;;;;;;;;;;4398564;32;71782;-59
2023/07/07 04:56:00;;;;;;;12.75;6.80;;;;;;;;;;4387509;32;67217;-58
2023/07/07 04:58:51;;;;;;;14.38;9.02;;;;;;;;;;4377561;32;66767;-59
2023/07/07 05:01:37;;;;;;;10.95;6.95;;;;;;;;;;4386984;32;66965;-59
2023/07/07 05:04:26;;;;;;;11.73;7.50;;;;;;;;;;4376350;32;72136;-59
2023/07/07 05:07:13;;;;;;;11.85;7.50;;;;;;;;;;4387703;32;66218;-59
2023/07/07 05:09:59;;;;;;;11.30;7.85;;;;;;;;;;4388102;32;68010;-58
2023/07/07 05:12:46;;;;;;;12.63;7.70;;;;;;;;;;4377017;32;61215;-58
2023/07/07 05:15:33;;;;;;;12.05;7.10;;;;;;;;;;4387220;32;71169;-59
2023/07/07 05:18:19;;;;;;;9.77;6.25;;;;;;;;;;4397451;32;69292;-59
2023/07/07 05:21:07;;;;;;;13.82;6.90;;;;;;;;;;4387735;32;67751;-59
2023/07/07 05:23:54;;;;;;;13.48;8.10;;;;;;;;;;4387021;32;61136;-58
2023/07/07 05:26:41;;;;;;;13.27;6.25;;;;;;;;;;4399126;32;69625;-58
2023/07/07 05:29:27;;;;;;;;;;;;;;;;;;4379061;32;69319;-59
2023/07/07 05:32:14;;;;;;;10.97;6.97;;;;;;;;;;4386682;32;68417;-59
2023/07/07 05:35:01;;;;;;;12.43;7.75;;;;;;;;;;4386949;32;72055;-60
2023/07/07 05:37:47;;;;;;;14.43;8.02;;;;;;;;;;4376348;32;65278;-58
2023/07/07 05:40:34;;;;;;;;;;;;;;;;;;4398678;32;67422;-58
2023/07/07 05:43:22;;;;;;;12.97;7.07;;;;;;;;;;4387528;32;59698;-58
2023/07/07 05:46:14;;;;;;;8.68;6.32;;;;;;;;;;4375629;32;71180;-59
2023/07/07 05:49:01;;;;;;;11.82;7.18;;;;;;;;;;4376528;32;66028;-59
2023/07/07 05:51:48;;;;;;;9.07;7.12;;;;;;;;;;4399056;32;67601;-58
2023/07/07 05:54:34;;;;;;;12.68;8.05;;;;;;;;;;4386566;32;61186;-59
2023/07/07 05:57:21;;;;;;;8.55;6.87;;;;;;;;;;4387056;32;70466;-58
2023/07/07 06:00:09;;;;;;;14.93;7.93;;;;;;;;;;4376283;32;68428;-59
2023/07/07 06:02:59;;;;;;;14.27;8.02;;;;;;;;;;4376697;32;66734;-59
2023/07/07 06:05:46;;;;;;;12.63;7.68;;;;;;;;;;4385770;32;72433;-59
2023/07/07 06:08:33;;;;;;;10.75;7.47;;;;;;;;;;4386645;32;65095;-59
2023/07/07 06:11:19;;;;;;;14.20;7.22;;;;;;;;;;4397535;32;67572;-58
2023/07/07 06:14:05;;;;;;;8.85;6.12;;;;;;;;;;4396852;32;66270;-58
2023/07/07 06:16:52;;;;;;;10.50;7.05;;;;;;;;;;4385678;32;70654;-58
2023/07/07 06:19:38;;;;;;;11.15;7.20;;;;;;;;;;4397314;32;65734;-58
2023/07/07 06:22:25;;;;;;;12.40;7.45;;;;;;;;;;4364802;32;66899;-59
2023/07/07 06:25:12;;;;;;;9.75;7.10;;;;;;;;;;4386748;32;59153;-59
2023/07/07 06:27:58;;;;;;;9.27;6.43;;;;;;;;;;4397180;32;70277;-59
2023/07/07 06:30:48;;;;;;;9.68;6.70;;;;;;;;;;4386080;32;69190;-59
2023/07/07 06:33:35;;;;;;;11.07;6.70;;;;;;;;;;4386355;32;66924;-59
2023/07/07 06:36:22;;;;;;;12.00;7.05;;;;;;;;;;4386415;32;71924;-59
2023/07/07 06:39:09;;;;;;;12.30;7.03;;;;;;;;;;4375527;32;69696;-59
2023/07/07 06:41:56;;;;;;;7.95;5.60;;;;;;;;;;4375471;32;68965;-58
2023/07/07 06:44:43;;;;;;;7.97;6.22;;;;;;;;;;4386328;32;66791;-59
2023/07/07 06:47:30;;;;;;;12.20;7.00;;;;;;;;;;4375585;32;71883;-59
2023/07/07 06:50:24;;;;;;;11.00;7.37;;;;;;;;;;4396674;32;65965;-59
2023/07/07 06:53:10;;;;;;;10.95;7.45;;;;;;;;;;4375355;32;67544;-59
2023/07/07 06:55:57;;;;;;;9.40;7.05;;;;;;;;;;4396399;32;60323;-59
2023/07/07 06:58:44;;;;;;;8.05;5.25;;;;;;;;;;4375353;32;70464;-59
2023/07/07 07:01:31;;;;;;;9.20;6.60;;;;;;;;;;4396486;32;69026;-59
2023/07/07 07:04:17;;;;;;;11.43;6.32;;;;;;;;;;4375423;32;67575;-58
2023/07/07 07:07:05;;;;;;;10.32;6.80;;;;;;;;;;4386088;32;60342;-58
2023/07/07 07:09:52;;;;;;;10.20;6.62;;;;;;;;;;4396427;32;70533;-59
2023/07/07 07:12:39;;;;;;;10.40;6.80;;;;;;;;;;4375350;32;69291;-59
2023/07/07 07:15:25;;;;;;;10.68;6.25;;;;;;;;;;4385233;32;68195;-59
2023/07/07 07:18:13;;;;;;;9.35;6.53;;;;;;;;;;4385675;32;71723;-59
2023/07/07 07:20:59;;;;;;;10.60;5.95;;;;;;;;;;4385823;32;64933;-58
2023/07/07 07:23:46;;;;;;;9.00;6.47;;;;;;;;;;4385681;32;66911;-57
2023/07/07 07:26:33;;;;;;;11.02;7.18;;;;;;;;;;4396450;32;60139;-59
2023/07/07 07:29:20;;;;;;;10.48;6.03;;;;;;;;;;4396302;32;71984;-59
2023/07/07 07:32:07;;;;;;;9.75;6.10;;;;;;;;;;4396194;32;66657;-59
2023/07/07 07:34:54;;;;;;;9.02;5.62;;;;;;;;;;4375126;32;67444;-58
2023/07/07 07:37:41;;;;;;;7.45;5.25;;;;;;;;;;4386196;32;59371;-58
2023/07/07 07:40:28;;;;;;;7.55;5.07;;;;;;;;;;4396356;32;70666;-59
2023/07/07 07:43:15;;;;;;;8.75;5.75;;;;;;;;;;4398903;32;69653;-58
2023/07/07 07:46:01;;;;;;;9.25;5.90;;;;;;;;;;4399127;32;66831;-59
2023/07/07 07:48:48;;;;;;;8.68;5.80;;;;;;;;;;4377931;32;71846;-58
2023/07/07 07:51:39;;;;;;;9.07;6.25;;;;;;;;;;4398777;32;70584;-59
2023/07/07 07:54:26;;;;;;;10.02;5.28;;;;;;;;;;4388135;32;68359;-60
2023/07/07 07:57:16;;;;;;;7.45;5.53;;;;;;;;;;4366382;32;68094;-58
2023/07/07 08:00:06;;;;;;;8.18;5.53;;;;;;;;;;4387993;32;71748;-59
2023/07/07 08:02:59;;;;;;;7.20;5.47;;;;;;;;;;4389235;32;66310;-59
2023/07/07 08:05:46;;;;;;;8.18;6.12;;;;;;;;;;4377662;32;66846;-58
2023/07/07 08:08:33;;;;;;;12.35;6.03;;;;;;;;;;4388276;32;59798;-58
2023/07/07 08:11:29;;;;;;;10.32;6.07;;;;;;;;;;4388057;32;69800;-57
2023/07/07 08:14:18;;;;;;;9.38;6.25;;;;;;;;;;4398675;32;69316;-59
2023/07/07 08:17:10;;;;;;;7.55;4.62;;;;;;;;;;4376832;32;68629;-57
2023/07/07 08:19:57;;;;;;;9.52;6.30;;;;;;;;;;4376983;32;61535;-58
2023/07/07 08:22:44;;;;;;;8.40;5.53;;;;;;;;;;4376525;32;71361;-59
2023/07/07 08:25:34;;;;;;;8.52;5.78;;;;;;;;;;4376541;32;68389;-59
2023/07/07 08:28:20;;;;;;;9.68;5.53;;;;;;;;;;4388135;32;66891;-57
2023/07/07 08:31:07;;;;;;;8.13;5.68;;;;;;;;;;4387509;32;71743;-59
2023/07/07 08:33:54;;;;;;;7.45;5.70;;;;;;;;;;4376693;32;66917;-57
2023/07/07 08:36:41;;;;;;;8.27;6.15;;;;;;;;;;4398242;32;67144;-59
2023/07/07 08:39:29;;;;;;;8.15;5.90;;;;;;;;;;4377024;32;60119;-60
2023/07/07 08:42:31;;;;;;;8.80;6.43;;;;;;;;;;4365627;32;71470;-58
2023/07/07 08:45:20;;;;;;;9.00;6.60;;;;;;;;;;4387609;32;65930;-58
2023/07/07 08:48:24;;;;;;;8.73;6.10;;;;;;;;;;4387663;32;67797;-59
2023/07/07 08:51:17;;;;;;;9.23;5.80;;;;;;;;;;4399484;32;60183;-58
2023/07/07 08:54:12;;;;;;;9.95;5.95;;;;;;;;;;4397548;32;70507;-58
2023/07/07 08:57:12;;;;;;;10.32;5.60;;;;;;;;;;4386889;32;69643;-57
2023/07/07 09:00:38;;;;;;;7.20;4.93;;;;;;;;;;4386899;32;67279;-59
2023/07/07 09:03:58;;;;;;;8.10;5.65;;;;;;;;;;4397955;32;70733;-58
2023/07/07 09:07:02;;;;;;;9.32;5.68;;;;;;;;;;4398400;32;65794;-58
2023/07/07 09:09:59;;;;;;;9.32;5.53;;;;;;;;;;4397809;32;68517;-57
2023/07/07 09:12:46;;;;;;;;;;;;;;;;;;4399516;32;67374;-59
2023/07/07 09:15:35;;;;;;;8.88;5.65;;;;;;;;;;4376547;32;71093;-59
2023/07/07 09:18:30;;;;;;;8.35;5.80;;;;;;;;;;4398118;32;66018;-59
2023/07/07 09:21:32;;;;;;;7.87;6.05;;;;;;;;;;4387132;32;66992;-59
2023/07/07 09:24:42;;;;;;;9.63;5.90;;;;;;;;;;4398947;32;60071;-59
2023/07/07 09:27:51;;;;;;;8.02;5.62;;;;;;;;;;4388074;32;70500;-59
2023/07/07 09:30:48;;;;;;;7.82;4.85;;;;;;;;;;4399931;32;69951;-58
2023/07/07 09:33:35;;;;;;;7.97;5.43;;;;;;;;;;4399400;32;66773;-59
2023/07/07 09:36:26;;;;;;;6.60;3.85;;;;;;;;;;4397943;32;60091;-57
2023/07/07 09:39:23;;;;;;;7.75;5.60;;;;;;;;;;4376138;32;70405;-59
2023/07/07 09:42:38;;;;;;;8.90;6.27;;;;;;;;;;4375655;32;69699;-57
2023/07/07 09:45:28;;;;;;;8.40;5.80;;;;;;;;;;4375813;32;67990;-58
2023/07/07 09:48:14;;;;;;;7.95;5.32;;;;;;;;;;4386144;32;73360;-58
2023/07/07 09:51:42;;;;;;;8.18;5.07;;;;;;;;;;4386635;32;65973;-57
2023/07/07 09:54:29;;;;;;;9.18;6.28;;;;;;;;;;4386054;32;65972;-58
2023/07/07 09:57:28;;;;;;;7.28;5.07;;;;;;;;;;4397570;32;60432;-59
2023/07/07 10:00:18;;;;;;;7.82;5.60;;;;;;;;;;4386475;32;69579;-58
2023/07/07 10:03:33;;;;;;;8.30;6.20;;;;;;;;;;4386866;32;66148;-58
2023/07/07 10:06:31;;;;;;;8.02;5.78;;;;;;;;;;4385755;32;68816;-58
2023/07/07 10:09:19;;;;;;;9.20;5.72;;;;;;;;;;4387023;32;60250;-59
2023/07/07 10:12:08;;;;;;;9.32;6.10;;;;;;;;;;4386673;32;69654;-59
2023/07/07 10:14:55;;;;;;;9.77;5.97;;;;;;;;;;4386578;32;68328;-59
2023/07/07 10:17:51;;;;;;;8.00;5.78;;;;;;;;;;4385846;32;68026;-59
2023/07/07 10:20:37;;;;;;;8.73;6.37;;;;;;;;;;4364513;32;71549;-59
2023/07/07 10:23:28;;;;;;;9.73;6.07;;;;;;;;;;4398666;32;66261;-59
2023/07/07 10:26:15;;;;;;;7.40;5.43;;;;;;;;;;4375868;32;69289;-59
2023/07/07 10:29:04;;;;;;;8.43;5.50;;;;;;;;;;4364799;32;67936;-58
2023/07/07 10:31:52;;;;;;;10.30;5.65;;;;;;;;;;4396924;32;71591;-59
2023/07/07 10:34:41;;;;;;;7.93;4.90;;;;;;;;;;4385972;32;65643;-59
2023/07/07 10:37:31;;;;;;;9.05;5.60;;;;;;;;;;4396973;32;68090;-59
2023/07/07 10:40:25;;;;;;;6.20;4.78;;;;;;;;;;4386033;32;59617;-59
2023/07/07 10:43:18;;;;;;;6.95;4.25;;;;;;;;;;4386777;32;69512;-58
2023/07/07 10:46:11;;;;;;;8.43;5.03;;;;;;;;;;4375525;32;69376;-58
2023/07/07 10:48:58;;;;;;;7.55;4.90;;;;;;;;;;4375793;32;67774;-59
2023/07/07 10:52:11;;;;;;;7.97;5.37;;;;;;;;;;4375078;32;60823;-59
2023/07/07 10:55:10;;;;;;;8.23;4.97;;;;;;;;;;4385678;32;70228;-59
2023/07/07 10:57:59;;;;;;;7.65;6.05;;;;;;;;;;4386091;32;68400;-59
2023/07/07 11:01:22;;;;;;;8.07;4.60;;;;;;;;;;4397115;32;67583;-59
2023/07/07 11:04:19;;;;;;;8.98;5.90;;;;;;;;;;4375267;32;71669;-58
2023/07/07 11:07:32;;;;;;;10.15;5.15;;;;;;;;;;4376556;32;65540;-59
2023/07/07 11:10:37;;;;;;;6.20;4.43;;;;;;;;;;4375013;32;66315;-59
2023/07/07 11:13:36;;;;;;;6.35;4.65;;;;;;;;;;4397021;32;60444;-58
2023/07/07 11:16:22;;;;;;;7.25;5.00;;;;;;;;;;4385808;32;70187;-59
2023/07/07 11:19:14;;;;;;;7.25;4.97;;;;;;;;;;4399000;32;65752;-59
2023/07/07 11:22:19;;;;;;;8.10;4.82;;;;;;;;;;4388413;32;68116;-59
2023/07/07 11:25:38;;;;;;;8.05;5.10;;;;;;;;;;4400686;32;58751;-58
2023/07/07 11:28:47;;;;;;;6.75;4.90;;;;;;;;;;4376877;32;71049;-59
2023/07/07 11:31:36;;;;;;;6.93;5.25;;;;;;;;;;4388468;32;69277;-59
2023/07/07 11:34:37;;;;;;;6.40;4.25;;;;;;;;;;4388398;32;66960;-60
2023/07/07 11:37:29;;;;;;;5.53;4.30;;;;;;;;;;4400033;32;71692;-60
2023/07/07 11:40:25;;;;;;;6.45;4.18;;;;;;;;;;4388396;32;65987;-58
2023/07/07 11:43:43;;;;;;;7.03;4.17;;;;;;;;;;4399076;32;68097;-58
2023/07/07 11:46:52;;;;;;;5.65;3.72;;;;;;;;;;4388291;32;67703;-58
2023/07/07 11:49:45;;;;;;;4.95;3.72;;;;;;;;;;4398693;32;71491;-58
2023/07/07 11:52:49;;;;;;;2.10;1.85;;;;;;;;;;4366240;32;65733;-58
2023/07/07 11:55:57;;;;;;;7.87;4.57;;;;;;;;;;4398582;32;68295;-59
2023/07/07 11:58:59;;;;;;;6.07;4.10;;;;;;;;;;4399483;32;60187;-58
2023/07/07 12:01:49;;;;;;;6.05;4.10;;;;;;;;;;4388128;32;70397;-58
2023/07/07 12:07:25;;;;;;;8.30;4.30;;;;;;;;;;3846055;37;43071;-59
2023/07/07 12:10:20;;;;;;;7.60;4.32;;;;;;;;;;4399180;32;59379;-58
2023/07/07 12:13:22;;;;;;;5.80;4.37;;;;;;;;;;4388201;32;70721;-58
2023/07/07 12:16:20;;;;;;;7.87;4.03;;;;;;;;;;4398711;32;68428;-59
2023/07/07 12:19:47;;;;;;;7.65;4.60;;;;;;;;;;4374471;32;67197;-58
2023/07/07 12:22:35;;;;;;;7.18;4.60;;;;;;;;;;3847129;37;43842;-58
2023/07/07 12:25:23;;;;;;;6.85;4.95;;;;;;;;;;4388797;32;60193;-58
2023/07/07 12:28:10;;;;;;;6.93;4.53;;;;;;;;;;4376789;32;71299;-59
2023/07/07 12:30:56;;;;;;;7.12;4.75;;;;;;;;;;4398700;32;68643;-59
2023/07/07 12:33:43;;;;;;;6.75;4.60;;;;;;;;;;4409543;32;67476;-58
2023/07/07 12:36:30;;;;;;;8.63;5.05;;;;;;;;;;4387464;32;71815;-57
2023/07/07 12:39:17;;;;;;;10.05;5.70;;;;;;;;;;4398800;32;66159;-59
2023/07/07 12:42:05;;;;;;;6.72;4.85;;;;;;;;;;4398782;32;66159;-58
2023/07/07 12:44:51;;;;;;;8.40;4.95;;;;;;;;;;4398921;32;59099;-58
2023/07/07 12:47:40;;;;;;;7.22;5.30;;;;;;;;;;4398637;32;70707;-58
2023/07/07 12:50:43;;;;;;;8.07;6.07;;;;;;;;;;4398559;32;64948;-59
2023/07/07 12:53:36;;;;;;;5.22;3.75;;;;;;;;;;4397847;32;68434;-58
2023/07/07 12:56:28;;;;;;;7.70;4.65;;;;;;;;;;4398766;32;59769;-58
2023/07/07 12:59:34;;;;;;;9.25;5.12;;;;;;;;;;4397867;32;70171;-58
2023/07/07 13:02:24;;;;;;;7.12;5.15;;;;;;;;;;4387151;32;69848;-57
2023/07/07 13:05:23;;;;;;;4.93;2.70;;;;;;;;;;4409128;32;67498;-59
2023/07/07 13:08:10;;;;;;;9.60;5.37;;;;;;;;;;4409044;32;70835;-59
2023/07/07 13:11:05;;;;;;;8.63;5.72;;;;;;;;;;4398713;32;65783;-58
2023/07/07 13:13:52;;;;;;;9.32;5.12;;;;;;;;;;4398208;32;68337;-59
2023/07/07 13:16:39;;;;;;;7.28;5.25;;;;;;;;;;4398145;32;68151;-59
2023/07/07 13:19:26;;;;;;;7.47;5.07;;;;;;;;;;4398122;32;71639;-58
2023/07/07 13:22:15;;;;;;;7.50;4.72;;;;;;;;;;4387322;32;65722;-58
2023/07/07 13:25:08;;;;;;;7.72;5.30;;;;;;;;;;4408801;32;66642;-60
2023/07/07 13:27:55;;;;;;;7.12;4.82;;;;;;;;;;4409208;32;60088;-58
2023/07/07 13:30:48;;;;;;;8.23;5.32;;;;;;;;;;4386815;32;71047;-58
2023/07/07 13:33:35;;;;;;;7.12;5.18;;;;;;;;;;4399358;32;69001;-59
2023/07/07 13:36:24;;;;;;;11.98;5.50;;;;;;;;;;4398614;32;67793;-58
2023/07/07 13:39:17;;;;;;;8.00;4.62;;;;;;;;;;4388142;32;58921;-60
2023/07/07 13:42:06;;;;;;;7.62;5.53;;;;;;;;;;4366308;32;71015;-59
2023/07/07 13:45:08;;;;;;;9.98;5.50;;;;;;;;;;4398376;32;68382;-59
2023/07/07 13:47:54;;;;;;;7.78;5.55;;;;;;;;;;4387568;32;67732;-58
2023/07/07 13:50:41;;;;;;;6.72;4.82;;;;;;;;;;4386995;32;72692;-58
2023/07/07 13:53:28;;;;;;;8.85;5.20;;;;;;;;;;4376359;32;65958;-59
2023/07/07 13:56:15;;;;;;;7.82;5.10;;;;;;;;;;4387734;32;67750;-59
2023/07/07 13:59:02;;;;;;;8.75;4.65;;;;;;;;;;4376805;32;59913;-59
2023/07/07 14:01:49;;;;;;;9.52;4.60;;;;;;;;;;4365530;32;70937;-58
2023/07/07 14:04:40;;;;;;;8.90;4.95;;;;;;;;;;4387038;32;66824;-58
2023/07/07 14:07:27;;;;;;;9.20;4.78;;;;;;;;;;4377400;32;67858;-59
2023/07/07 14:10:46;;;;;;;8.35;5.12;;;;;;;;;;4398127;32;61038;-59
2023/07/07 14:13:34;;;;;;;7.78;5.60;;;;;;;;;;4395400;32;70459;-58
2023/07/07 14:16:28;;;;;;;8.25;5.22;;;;;;;;;;4387631;32;68267;-58
2023/07/07 14:19:22;;;;;;;7.12;4.72;;;;;;;;;;4387590;32;66632;-58
2023/07/07 14:22:10;;;;;;;8.68;5.12;;;;;;;;;;4386829;32;70688;-58
2023/07/07 14:24:57;;;;;;;6.85;4.93;;;;;;;;;;4376892;32;64891;-58
2023/07/07 14:27:44;;;;;;;7.12;4.90;;;;;;;;;;4398210;32;67496;-58
2023/07/07 14:30:31;;;;;;;7.60;5.15;;;;;;;;;;4387320;32;66803;-59
2023/07/07 14:33:24;;;;;;;6.78;4.97;;;;;;;;;;4399101;32;70703;-59
2023/07/07 14:36:22;;;;;;;7.05;4.97;;;;;;;;;;4387440;32;65011;-59
2023/07/07 14:39:25;;;;;;;8.32;5.03;;;;;;;;;;4386801;32;67691;-58
2023/07/07 14:42:17;;;;;;;8.07;5.57;;;;;;;;;;4387135;32;59742;-59
2023/07/07 14:45:04;;;;;;;8.60;5.55;;;;;;;;;;4396921;32;69521;-58
2023/07/07 14:47:51;;;;;;;9.10;5.43;;;;;;;;;;4387125;32;69341;-59
2023/07/07 14:50:37;;;;;;;7.35;5.35;;;;;;;;;;4375728;32;68153;-59
2023/07/07 14:53:24;;;;;;;8.85;5.47;;;;;;;;;;4376726;32;59070;-58
2023/07/07 14:56:41;;;;;;;8.32;5.32;;;;;;;;;;4386909;32;70847;-58
2023/07/07 14:59:35;;;;;;;9.27;5.93;;;;;;;;;;4396596;32;69567;-61
2023/07/07 15:02:36;;;;;;;7.93;5.00;;;;;;;;;;4397070;32;68197;-58
2023/07/07 15:05:25;;;;;;;8.65;4.95;;;;;;;;;;4386249;32;72536;-58
2023/07/07 15:08:14;;;;;;;8.10;5.07;;;;;;;;;;4386340;32;65527;-58
2023/07/07 15:11:05;;;;;;;9.05;5.25;;;;;;;;;;4386931;32;67776;-58
2023/07/07 15:13:52;;;;;;;7.10;4.90;;;;;;;;;;4387278;32;60270;-58
2023/07/07 15:16:39;;;;;;;11.30;8.07;;;;;;;;;;4386052;32;70077;-58
2023/07/07 15:19:26;;;;;;;9.80;5.62;;;;;;;;;;4386750;32;66286;-58
2023/07/07 15:22:13;;;;;;;10.88;6.62;;;;;;;;;;4386376;32;66742;-58
2023/07/07 15:24:59;;;;;;;8.77;5.62;;;;;;;;;;4386393;32;61016;-58
2023/07/07 15:27:46;;;;;;;9.18;5.30;;;;;;;;;;4375872;32;69552;-58
2023/07/07 15:30:33;;;;;;;9.02;5.03;;;;;;;;;;4398458;32;68992;-59
2023/07/07 15:33:19;;;;;;;;;;;;;;;;;;4386914;32;67455;-57
2023/07/07 15:36:07;;;;;;;8.43;5.07;;;;;;;;;;4398440;32;72050;-59
2023/07/07 15:38:56;;;;;;;10.00;5.28;;;;;;;;;;4397182;32;65756;-58
2023/07/07 15:41:43;;;;;;;8.63;5.28;;;;;;;;;;4397323;32;67339;-58
2023/07/07 15:44:29;;;;;;;8.90;5.40;;;;;;;;;;4386223;32;66963;-59
2023/07/07 15:47:22;;;;;;;8.63;5.05;;;;;;;;;;4386262;32;71935;-59
2023/07/07 15:50:34;;;;;;;9.07;5.20;;;;;;;;;;4364547;32;63805;-59
2023/07/07 15:53:21;;;;;;;8.23;5.53;;;;;;;;;;4386630;32;67856;-59
2023/07/07 15:56:09;;;;;;;8.13;5.05;;;;;;;;;;4386249;32;60382;-58
2023/07/07 15:58:56;;;;;;;11.07;5.72;;;;;;;;;;4396828;32;69704;-58
2023/07/07 16:01:43;;;;;;;9.43;5.57;;;;;;;;;;4375484;32;68317;-59
2023/07/07 16:04:30;;;;;;;10.02;6.18;;;;;;;;;;4386267;32;66860;-58
2023/07/07 16:07:17;;;;;;;13.18;6.05;;;;;;;;;;4386316;32;71686;-58
2023/07/07 16:10:10;;;;;;;17.55;10.23;;;;;;;;;;4386095;32;70674;-58
2023/07/07 16:12:56;;;;;;;13.62;8.57;;;;;;;;;;4386064;32;68026;-58
2023/07/07 16:15:43;;;;;;;16.05;7.97;;;;;;;;;;4396668;32;66655;-59
2023/07/07 16:18:30;;;;;;;10.48;5.78;;;;;;;;;;4386062;32;70754;-58
2023/07/07 16:21:22;;;;;;;9.70;6.40;;;;;;;;;;4385803;32;66201;-58
2023/07/07 16:24:08;;;;;;;13.20;7.45;;;;;;;;;;4374290;32;67949;-58
2023/07/07 16:26:56;;;;;;;11.82;7.07;;;;;;;;;;4397047;32;59286;-59
2023/07/07 16:29:43;;;;;;;16.30;9.05;;;;;;;;;;4374490;32;70547;-61
2023/07/07 16:32:33;;;;;;;12.13;7.82;;;;;;;;;;4385783;32;68287;-59
2023/07/07 16:35:20;;;;;;;13.15;8.48;;;;;;;;;;4386300;32;66955;-59
2023/07/07 16:38:13;;;;;;;17.20;10.60;;;;;;;;;;4375542;32;59980;-59
2023/07/07 16:40:59;;;;;;;15.18;9.40;;;;;;;;;;4375102;32;70834;-58
2023/07/07 16:43:47;;;;;;;12.57;8.55;;;;;;;;;;4396440;32;69408;-58
2023/07/07 16:46:33;;;;;;;12.88;8.23;;;;;;;;;;4385818;32;66619;-58
2023/07/07 16:49:20;;;;;;;13.80;7.75;;;;;;;;;;4374919;32;71745;-59
2023/07/07 16:52:07;;;;;;;10.27;7.12;;;;;;;;;;4396636;32;66673;-58
2023/07/07 16:54:54;;;;;;;10.90;6.80;;;;;;;;;;4385805;32;67056;-59
2023/07/07 16:57:41;;;;;;;13.25;8.68;;;;;;;;;;4385207;32;60568;-59
2023/07/07 17:00:32;;;;;;;16.77;11.52;;;;;;;;;;4385589;32;71824;-58
2023/07/07 17:03:19;;;;;;;47.58;32.83;;;;;;;;;;4396347;32;65916;-59
2023/07/07 17:06:17;;;;;;;30.33;18.75;;;;;;;;;;4363787;32;67329;-59
2023/07/07 17:09:15;;;;;;;24.30;10.93;;;;;;;;;;4388197;32;60155;-59
2023/07/07 17:12:08;;;;;;;14.20;8.88;;;;;;;;;;4387683;32;70940;-59
2023/07/07 17:14:55;;;;;;;13.52;8.20;;;;;;;;;;4398770;32;69290;-59
2023/07/07 17:17:41;;;;;;;12.05;8.45;;;;;;;;;;4376880;32;68122;-59
2023/07/07 17:20:32;;;;;;;15.32;8.65;;;;;;;;;;4399798;32;71576;-59
2023/07/07 17:23:19;;;;;;;13.75;8.98;;;;;;;;;;4377174;32;70648;-59
2023/07/07 17:26:13;;;;;;;19.33;8.02;;;;;;;;;;4377392;32;69336;-58
2023/07/07 17:29:00;;;;;;;11.57;7.85;;;;;;;;;;4387313;32;67206;-59
2023/07/07 17:31:47;;;;;;;11.93;7.57;;;;;;;;;;4387934;32;71796;-58
2023/07/07 17:34:34;;;;;;;15.05;8.13;;;;;;;;;;4387392;32;66304;-58
2023/07/07 17:37:20;;;;;;;11.70;6.87;;;;;;;;;;4399943;32;67513;-59
2023/07/07 17:40:20;;;;;;;10.27;7.05;;;;;;;;;;4376885;32;59800;-58
2023/07/07 17:43:07;;;;;;;12.40;6.95;;;;;;;;;;4398260;32;69690;-59
2023/07/07 17:45:54;;;;;;;9.63;6.40;;;;;;;;;;4387118;32;69792;-58
2023/07/07 17:48:41;;;;;;;10.20;7.28;;;;;;;;;;4376284;32;67602;-58
2023/07/07 17:51:27;;;;;;;;;;;;;;;;;;4400169;32;60525;-59
2023/07/07 17:54:14;;;;;;;12.35;7.90;;;;;;;;;;4387116;32;70946;-59
2023/07/07 17:57:03;;;;;;;13.75;7.25;;;;;;;;;;4376921;32;68311;-58
2023/07/07 17:59:49;;;;;;;12.10;7.60;;;;;;;;;;4387535;32;67867;-59
2023/07/07 18:02:36;;;;;;;12.82;7.20;;;;;;;;;;4387410;32;71565;-59
2023/07/07 18:05:22;;;;;;;10.77;7.03;;;;;;;;;;4398251;32;64941;-59
2023/07/07 18:08:11;;;;;;;12.52;7.07;;;;;;;;;;4376831;32;67859;-59
2023/07/07 18:10:58;;;;;;;12.70;7.68;;;;;;;;;;4387146;32;59817;-58
2023/07/07 18:13:45;;;;;;;14.13;7.22;;;;;;;;;;4375789;32;70285;-58
2023/07/07 18:16:34;;;;;;;13.95;8.57;;;;;;;;;;4398119;32;65695;-59
2023/07/07 18:19:21;;;;;;;15.73;8.35;;;;;;;;;;4386892;32;67361;-58
2023/07/07 18:22:12;;;;;;;10.02;7.45;;;;;;;;;;4397898;32;60034;-59
2023/07/07 18:24:58;;;;;;;13.73;7.97;;;;;;;;;;4386289;32;70362;-59
2023/07/07 18:27:45;;;;;;;12.15;7.90;;;;;;;;;;4375912;32;70588;-58
2023/07/07 18:30:33;;;;;;;14.63;8.00;;;;;;;;;;4375904;32;68165;-58
2023/07/07 18:33:20;;;;;;;13.07;8.20;;;;;;;;;;4375757;32;70750;-58
2023/07/07 18:36:10;;;;;;;15.50;7.55;;;;;;;;;;4376982;32;65241;-58
2023/07/07 18:38:57;;;;;;;13.05;8.20;;;;;;;;;;4397305;32;69047;-59
2023/07/07 18:41:43;;;;;;;;;;;;;;;;;;4375877;32;68055;-59
2023/07/07 18:44:30;;;;;;;18.33;8.93;;;;;;;;;;4397981;32;71187;-59
2023/07/07 18:47:17;;;;;;;13.90;8.70;;;;;;;;;;4387202;32;64859;-58
2023/07/07 18:50:20;;;;;;;12.85;7.50;;;;;;;;;;4397541;32;67746;-59
2023/07/07 18:53:07;;;;;;;15.80;7.75;;;;;;;;;;4387217;32;60194;-59
2023/07/07 18:55:54;;;;;;;15.40;7.60;;;;;;;;;;4386878;32;69572;-59
2023/07/07 18:58:41;;;;;;;13.27;7.90;;;;;;;;;;4376447;32;69395;-59
2023/07/07 19:01:34;;;;;;;14.85;8.20;;;;;;;;;;4397593;32;67554;-59
2023/07/07 19:04:21;;;;;;;15.15;7.87;;;;;;;;;;4387646;32;60247;-58
2023/07/07 19:07:08;;;;;;;11.80;7.97;;;;;;;;;;4386818;32;70719;-58
2023/07/07 19:09:55;;;;;;;17.30;7.93;;;;;;;;;;4386800;32;68355;-58
2023/07/07 19:12:41;;;;;;;14.15;7.90;;;;;;;;;;4397468;32;67067;-58
2023/07/07 19:15:28;;;;;;;12.13;7.53;;;;;;;;;;4385903;32;71515;-58
2023/07/07 19:18:37;;;;;;;11.10;6.95;;;;;;;;;;4386880;32;64945;-59
2023/07/07 19:21:26;;;;;;;11.60;7.47;;;;;;;;;;4386230;32;68361;-58
2023/07/07 19:24:12;;;;;;;13.48;7.15;;;;;;;;;;4397505;32;59414;-59
2023/07/07 19:26:59;;;;;;;12.52;7.43;;;;;;;;;;4375979;32;70822;-58
2023/07/07 19:29:46;;;;;;;13.48;7.30;;;;;;;;;;4375649;32;66112;-58
2023/07/07 19:32:38;;;;;;;10.70;7.25;;;;;;;;;;4375952;32;66721;-58
2023/07/07 19:35:25;;;;;;;11.70;7.22;;;;;;;;;;4386805;32;59224;-58
2023/07/07 19:38:22;;;;;;;10.73;7.43;;;;;;;;;;4375739;32;69562;-58
2023/07/07 19:41:15;;;;;;;10.50;7.37;;;;;;;;;;4397027;32;69496;-58
2023/07/07 19:44:02;;;;;;;11.60;7.72;;;;;;;;;;4396903;32;66701;-59
2023/07/07 19:46:48;;;;;;;;;;;;;;;;;;4397482;32;70643;-58
2023/07/07 19:49:34;;;;;;;11.65;7.07;;;;;;;;;;4376137;32;65728;-58
2023/07/07 19:52:21;;;;;;;12.60;8.25;;;;;;;;;;4386218;32;69340;-59
2023/07/07 19:55:08;;;;;;;13.43;8.05;;;;;;;;;;4375606;32;67834;-58
2023/07/07 19:57:55;;;;;;;12.05;7.15;;;;;;;;;;4375597;32;71774;-58